sensor_id;sensor_type;location;lat;lon;timestamp;temperature;humidity
22716;DHT22;11525;51.152;4.456;2022-11-15T00:02:11;10.20;99.90
22716;DHT22;11525;51.152;4.456;2022-11-15T00:04:37;10.30;99.90
22716;DHT22;11525;51.152;4.456;2022-11-15T00:07:02;10.40;99.90
22716;DHT22;11525;51.152;4.456;2022-11-15T00:09:28;10.50;99.90
22716;DHT22;11525;51.152;4.456;2022-11-15T00:11:54;10.50;99.90
22716;DHT22;11525;51.152;4.456;2022-11-15T00:14:20;10.60;99.90
22716;DHT22;11525;51.152;4.456;2022-11-15T00:16:45;10.70;99.90
22716;DHT22;11525;51.152;4.456;2022-11-15T00:19:11;10.90;99.90
22716;DHT22;11525;51.152;4.456;2022-11-15T00:21:37;11.00;99.90
22716;DHT22;11525;51.152;4.456;2022-11-15T00:24:03;11.10;99.90
22716;DHT22;11525;51.152;4.456;2022-11-15T00:26:28;11.20;99.90
22716;DHT22;11525;51.152;4.456;2022-11-15T00:28:54;11.20;99.90
22716;DHT22;11525;51.152;4.456;2022-11-15T00:31:20;11.20;99.90
22716;DHT22;11525;51.152;4.456;2022-11-15T00:33:46;11.30;99.90
22716;DHT22;11525;51.152;4.456;2022-11-15T00:36:12;11.40;99.90
22716;DHT22;11525;51.152;4.456;2022-11-15T00:38:39;11.50;99.90
22716;DHT22;11525;51.152;4.456;2022-11-15T00:41:06;11.50;99.90
22716;DHT22;11525;51.152;4.456;2022-11-15T00:43:33;11.60;99.90
22716;DHT22;11525;51.152;4.456;2022-11-15T00:45:59;11.80;99.90
22716;DHT22;11525;51.152;4.456;2022-11-15T00:48:25;11.80;99.90
22716;DHT22;11525;51.152;4.456;2022-11-15T00:50:51;11.80;99.90
22716;DHT22;11525;51.152;4.456;2022-11-15T00:53:17;12.00;99.90
22716;DHT22;11525;51.152;4.456;2022-11-15T00:55:43;12.20;99.90
22716;DHT22;11525;51.152;4.456;2022-11-15T00:58:09;12.30;99.90
22716;DHT22;11525;51.152;4.456;2022-11-15T01:00:34;12.20;99.90
22716;DHT22;11525;51.152;4.456;2022-11-15T01:03:00;12.30;99.90
22716;DHT22;11525;51.152;4.456;2022-11-15T01:05:27;12.50;99.90
22716;DHT22;11525;51.152;4.456;2022-11-15T01:07:54;12.50;99.90
22716;DHT22;11525;51.152;4.456;2022-11-15T01:10:20;12.50;99.90
22716;DHT22;11525;51.152;4.456;2022-11-15T01:12:46;12.50;99.90
22716;DHT22;11525;51.152;4.456;2022-11-15T01:15:12;12.60;99.90
22716;DHT22;11525;51.152;4.456;2022-11-15T01:17:38;12.60;99.90
22716;DHT22;11525;51.152;4.456;2022-11-15T01:20:04;12.60;99.90
22716;DHT22;11525;51.152;4.456;2022-11-15T01:22:30;12.60;99.90
22716;DHT22;11525;51.152;4.456;2022-11-15T01:24:56;12.50;99.90
22716;DHT22;11525;51.152;4.456;2022-11-15T01:27:22;12.60;99.90
22716;DHT22;11525;51.152;4.456;2022-11-15T01:29:48;12.60;99.90
22716;DHT22;11525;51.152;4.456;2022-11-15T01:32:14;12.70;99.90
22716;DHT22;11525;51.152;4.456;2022-11-15T01:34:39;12.60;99.90
22716;DHT22;11525;51.152;4.456;2022-11-15T01:37:05;12.60;99.90
22716;DHT22;11525;51.152;4.456;2022-11-15T01:39:31;12.50;99.90
22716;DHT22;11525;51.152;4.456;2022-11-15T01:41:57;12.70;99.90
22716;DHT22;11525;51.152;4.456;2022-11-15T01:44:39;12.90;99.90
22716;DHT22;11525;51.152;4.456;2022-11-15T01:47:12;12.80;99.90
22716;DHT22;11525;51.152;4.456;2022-11-15T01:49:45;12.80;99.90
22716;DHT22;11525;51.152;4.456;2022-11-15T01:52:16;12.80;99.90
22716;DHT22;11525;51.152;4.456;2022-11-15T01:54:43;12.60;99.90
22716;DHT22;11525;51.152;4.456;2022-11-15T01:57:12;12.70;99.90
22716;DHT22;11525;51.152;4.456;2022-11-15T01:59:40;12.80;99.90
22716;DHT22;11525;51.152;4.456;2022-11-15T02:02:08;12.90;99.90
22716;DHT22;11525;51.152;4.456;2022-11-15T02:04:39;12.80;99.90
22716;DHT22;11525;51.152;4.456;2022-11-15T02:07:06;12.90;99.90
22716;DHT22;11525;51.152;4.456;2022-11-15T02:09:34;12.90;99.90
22716;DHT22;11525;51.152;4.456;2022-11-15T02:12:01;12.90;99.90
22716;DHT22;11525;51.152;4.456;2022-11-15T02:14:28;12.90;99.90
22716;DHT22;11525;51.152;4.456;2022-11-15T02:25:11;12.90;99.90
22716;DHT22;11525;51.152;4.456;2022-11-15T02:36:35;12.80;99.90
22716;DHT22;11525;51.152;4.456;2022-11-15T02:41:40;12.80;99.90
22716;DHT22;11525;51.152;4.456;2022-11-15T02:44:26;12.90;99.90
22716;DHT22;11525;51.152;4.456;2022-11-15T02:47:01;12.90;99.90
22716;DHT22;11525;51.152;4.456;2022-11-15T02:49:49;12.90;99.90
22716;DHT22;11525;51.152;4.456;2022-11-15T02:52:23;12.80;99.90
22716;DHT22;11525;51.152;4.456;2022-11-15T02:55:00;12.80;99.90
22716;DHT22;11525;51.152;4.456;2022-11-15T03:00:07;12.80;99.90
22716;DHT22;11525;51.152;4.456;2022-11-15T03:11:14;12.60;99.90
22716;DHT22;11525;51.152;4.456;2022-11-15T03:13:57;12.60;99.90
22716;DHT22;11525;51.152;4.456;2022-11-15T03:16:41;12.70;99.90
22716;DHT22;11525;51.152;4.456;2022-11-15T03:21:44;12.80;99.90
22716;DHT22;11525;51.152;4.456;2022-11-15T03:24:12;12.70;99.90
22716;DHT22;11525;51.152;4.456;2022-11-15T03:26:41;12.70;99.90
22716;DHT22;11525;51.152;4.456;2022-11-15T03:29:31;12.80;99.90
22716;DHT22;11525;51.152;4.456;2022-11-15T03:32:12;12.90;99.90
22716;DHT22;11525;51.152;4.456;2022-11-15T03:34:59;12.80;99.90
22716;DHT22;11525;51.152;4.456;2022-11-15T03:37:58;12.90;99.90
22716;DHT22;11525;51.152;4.456;2022-11-15T03:40:39;12.80;99.90
22716;DHT22;11525;51.152;4.456;2022-11-15T03:47:07;12.90;99.90
22716;DHT22;11525;51.152;4.456;2022-11-15T03:49:11;13.00;99.90
22716;DHT22;11525;51.152;4.456;2022-11-15T03:51:39;12.90;99.90
22716;DHT22;11525;51.152;4.456;2022-11-15T03:54:06;12.80;99.90
22716;DHT22;11525;51.152;4.456;2022-11-15T03:56:32;12.90;99.90
22716;DHT22;11525;51.152;4.456;2022-11-15T03:58:58;12.90;99.90
22716;DHT22;11525;51.152;4.456;2022-11-15T04:01:24;12.80;99.90
22716;DHT22;11525;51.152;4.456;2022-11-15T04:03:50;12.80;99.90
22716;DHT22;11525;51.152;4.456;2022-11-15T04:06:15;12.90;99.90
22716;DHT22;11525;51.152;4.456;2022-11-15T04:08:41;12.90;99.90
22716;DHT22;11525;51.152;4.456;2022-11-15T04:11:07;12.90;99.90
22716;DHT22;11525;51.152;4.456;2022-11-15T04:13:33;12.80;99.90
22716;DHT22;11525;51.152;4.456;2022-11-15T04:15:59;12.60;99.90
22716;DHT22;11525;51.152;4.456;2022-11-15T04:18:24;12.70;99.90
22716;DHT22;11525;51.152;4.456;2022-11-15T04:20:50;12.80;99.90
22716;DHT22;11525;51.152;4.456;2022-11-15T04:23:35;12.70;99.90
22716;DHT22;11525;51.152;4.456;2022-11-15T04:26:21;12.70;99.90
22716;DHT22;11525;51.152;4.456;2022-11-15T04:28:48;12.70;99.90
22716;DHT22;11525;51.152;4.456;2022-11-15T04:31:32;12.60;99.90
22716;DHT22;11525;51.152;4.456;2022-11-15T04:33:58;12.60;99.90
22716;DHT22;11525;51.152;4.456;2022-11-15T04:36:24;12.60;99.90
22716;DHT22;11525;51.152;4.456;2022-11-15T04:39:09;12.40;99.90
22716;DHT22;11525;51.152;4.456;2022-11-15T04:41:35;12.40;99.90
22716;DHT22;11525;51.152;4.456;2022-11-15T04:44:01;12.50;99.90
22716;DHT22;11525;51.152;4.456;2022-11-15T04:46:27;12.50;99.90
22716;DHT22;11525;51.152;4.456;2022-11-15T04:48:54;12.50;99.90
22716;DHT22;11525;51.152;4.456;2022-11-15T04:51:20;12.40;99.90
22716;DHT22;11525;51.152;4.456;2022-11-15T04:53:46;12.50;99.90
22716;DHT22;11525;51.152;4.456;2022-11-15T04:56:12;12.50;99.90
22716;DHT22;11525;51.152;4.456;2022-11-15T04:58:38;12.60;99.90
22716;DHT22;11525;51.152;4.456;2022-11-15T05:01:11;12.50;99.90
22716;DHT22;11525;51.152;4.456;2022-11-15T05:03:39;12.50;99.90
22716;DHT22;11525;51.152;4.456;2022-11-15T05:06:24;12.50;99.90
22716;DHT22;11525;51.152;4.456;2022-11-15T05:08:49;12.50;99.90
22716;DHT22;11525;51.152;4.456;2022-11-15T05:11:15;12.50;99.90
22716;DHT22;11525;51.152;4.456;2022-11-15T05:13:41;12.50;99.90
22716;DHT22;11525;51.152;4.456;2022-11-15T05:16:07;12.50;99.90
22716;DHT22;11525;51.152;4.456;2022-11-15T05:18:32;12.50;99.90
22716;DHT22;11525;51.152;4.456;2022-11-15T05:21:06;12.50;99.90
22716;DHT22;11525;51.152;4.456;2022-11-15T05:23:33;12.50;99.90
22716;DHT22;11525;51.152;4.456;2022-11-15T05:26:00;12.40;99.90
22716;DHT22;11525;51.152;4.456;2022-11-15T05:28:26;12.40;99.90
22716;DHT22;11525;51.152;4.456;2022-11-15T05:30:52;12.40;99.90
22716;DHT22;11525;51.152;4.456;2022-11-15T05:33:18;12.40;99.90
22716;DHT22;11525;51.152;4.456;2022-11-15T05:35:54;12.30;99.90
22716;DHT22;11525;51.152;4.456;2022-11-15T05:38:20;12.10;99.90
22716;DHT22;11525;51.152;4.456;2022-11-15T05:40:47;12.10;99.90
22716;DHT22;11525;51.152;4.456;2022-11-15T05:43:13;12.00;99.90
22716;DHT22;11525;51.152;4.456;2022-11-15T05:45:39;12.00;99.90
22716;DHT22;11525;51.152;4.456;2022-11-15T05:48:07;11.90;99.90
22716;DHT22;11525;51.152;4.456;2022-11-15T05:50:34;11.90;99.90
22716;DHT22;11525;51.152;4.456;2022-11-15T05:53:01;11.90;99.90
22716;DHT22;11525;51.152;4.456;2022-11-15T05:55:28;11.80;99.90
22716;DHT22;11525;51.152;4.456;2022-11-15T05:57:54;11.70;99.90
22716;DHT22;11525;51.152;4.456;2022-11-15T06:00:19;11.70;99.90
22716;DHT22;11525;51.152;4.456;2022-11-15T06:02:45;11.60;99.90
22716;DHT22;11525;51.152;4.456;2022-11-15T06:05:11;11.60;99.90
22716;DHT22;11525;51.152;4.456;2022-11-15T06:07:37;11.70;99.90
22716;DHT22;11525;51.152;4.456;2022-11-15T06:10:03;11.60;99.90
22716;DHT22;11525;51.152;4.456;2022-11-15T06:12:29;11.70;99.90
22716;DHT22;11525;51.152;4.456;2022-11-15T06:14:55;11.70;99.90
22716;DHT22;11525;51.152;4.456;2022-11-15T06:17:20;11.80;99.90
22716;DHT22;11525;51.152;4.456;2022-11-15T06:19:46;11.80;99.90
22716;DHT22;11525;51.152;4.456;2022-11-15T06:22:12;11.90;99.90
22716;DHT22;11525;51.152;4.456;2022-11-15T06:24:38;11.70;99.90
22716;DHT22;11525;51.152;4.456;2022-11-15T06:27:03;11.60;99.90
22716;DHT22;11525;51.152;4.456;2022-11-15T06:29:29;11.50;99.90
22716;DHT22;11525;51.152;4.456;2022-11-15T06:31:55;11.40;99.90
22716;DHT22;11525;51.152;4.456;2022-11-15T06:34:21;11.30;99.90
22716;DHT22;11525;51.152;4.456;2022-11-15T06:36:46;11.40;99.90
22716;DHT22;11525;51.152;4.456;2022-11-15T06:39:12;11.50;99.90
22716;DHT22;11525;51.152;4.456;2022-11-15T06:41:38;11.50;99.90
22716;DHT22;11525;51.152;4.456;2022-11-15T06:44:04;11.50;99.90
22716;DHT22;11525;51.152;4.456;2022-11-15T06:46:30;11.60;99.90
22716;DHT22;11525;51.152;4.456;2022-11-15T06:48:55;11.60;99.90
22716;DHT22;11525;51.152;4.456;2022-11-15T06:51:21;11.60;99.90
22716;DHT22;11525;51.152;4.456;2022-11-15T06:53:47;11.50;99.90
22716;DHT22;11525;51.152;4.456;2022-11-15T06:56:13;11.30;99.90
22716;DHT22;11525;51.152;4.456;2022-11-15T06:58:39;11.20;99.90
22716;DHT22;11525;51.152;4.456;2022-11-15T07:01:10;11.00;99.90
22716;DHT22;11525;51.152;4.456;2022-11-15T07:03:37;10.80;99.90
22716;DHT22;11525;51.152;4.456;2022-11-15T07:06:03;10.90;99.90
22716;DHT22;11525;51.152;4.456;2022-11-15T07:08:29;10.80;99.90
22716;DHT22;11525;51.152;4.456;2022-11-15T07:11:00;10.80;99.90
22716;DHT22;11525;51.152;4.456;2022-11-15T07:13:28;10.80;99.90
22716;DHT22;11525;51.152;4.456;2022-11-15T07:15:54;10.60;99.90
22716;DHT22;11525;51.152;4.456;2022-11-15T07:18:20;10.60;99.90
22716;DHT22;11525;51.152;4.456;2022-11-15T07:20:46;10.50;99.90
22716;DHT22;11525;51.152;4.456;2022-11-15T07:23:12;10.80;99.90
22716;DHT22;11525;51.152;4.456;2022-11-15T07:25:38;10.80;99.90
22716;DHT22;11525;51.152;4.456;2022-11-15T07:28:04;10.80;99.90
22716;DHT22;11525;51.152;4.456;2022-11-15T07:30:30;10.80;99.90
22716;DHT22;11525;51.152;4.456;2022-11-15T07:33:00;10.90;99.90
22716;DHT22;11525;51.152;4.456;2022-11-15T07:35:27;10.90;99.90
22716;DHT22;11525;51.152;4.456;2022-11-15T07:37:55;10.80;99.90
22716;DHT22;11525;51.152;4.456;2022-11-15T07:40:21;10.90;99.90
22716;DHT22;11525;51.152;4.456;2022-11-15T07:42:46;10.90;99.90
22716;DHT22;11525;51.152;4.456;2022-11-15T07:45:22;11.00;99.90
22716;DHT22;11525;51.152;4.456;2022-11-15T07:47:49;10.90;99.90
22716;DHT22;11525;51.152;4.456;2022-11-15T07:50:16;11.00;99.90
22716;DHT22;11525;51.152;4.456;2022-11-15T07:52:41;11.10;99.90
22716;DHT22;11525;51.152;4.456;2022-11-15T07:55:08;11.00;99.90
22716;DHT22;11525;51.152;4.456;2022-11-15T07:57:34;11.10;99.90
22716;DHT22;11525;51.152;4.456;2022-11-15T08:00:00;11.20;99.90
22716;DHT22;11525;51.152;4.456;2022-11-15T08:02:25;11.20;99.90
22716;DHT22;11525;51.152;4.456;2022-11-15T08:04:51;11.30;99.90
22716;DHT22;11525;51.152;4.456;2022-11-15T08:07:17;11.40;99.90
22716;DHT22;11525;51.152;4.456;2022-11-15T08:09:42;11.50;99.90
22716;DHT22;11525;51.152;4.456;2022-11-15T08:12:08;11.80;99.90
22716;DHT22;11525;51.152;4.456;2022-11-15T08:14:35;12.40;99.90
22716;DHT22;11525;51.152;4.456;2022-11-15T08:17:00;13.00;99.90
22716;DHT22;11525;51.152;4.456;2022-11-15T08:19:26;13.90;99.90
22716;DHT22;11525;51.152;4.456;2022-11-15T08:21:52;15.10;99.90
22716;DHT22;11525;51.152;4.456;2022-11-15T08:24:18;15.80;99.90
22716;DHT22;11525;51.152;4.456;2022-11-15T08:26:44;16.40;99.90
22716;DHT22;11525;51.152;4.456;2022-11-15T08:29:10;16.50;99.90
22716;DHT22;11525;51.152;4.456;2022-11-15T08:31:36;17.00;99.90
22716;DHT22;11525;51.152;4.456;2022-11-15T08:34:03;18.00;99.90
22716;DHT22;11525;51.152;4.456;2022-11-15T08:36:28;19.60;99.90
22716;DHT22;11525;51.152;4.456;2022-11-15T08:38:54;19.50;99.90
22716;DHT22;11525;51.152;4.456;2022-11-15T08:41:27;19.50;99.90
22716;DHT22;11525;51.152;4.456;2022-11-15T08:43:53;19.20;99.90
22716;DHT22;11525;51.152;4.456;2022-11-15T08:46:19;19.10;99.90
22716;DHT22;11525;51.152;4.456;2022-11-15T08:48:45;19.40;99.90
22716;DHT22;11525;51.152;4.456;2022-11-15T08:51:11;19.30;99.90
22716;DHT22;11525;51.152;4.456;2022-11-15T08:53:36;19.30;99.90
22716;DHT22;11525;51.152;4.456;2022-11-15T08:56:03;19.30;99.90
22716;DHT22;11525;51.152;4.456;2022-11-15T08:58:32;19.30;99.90
22716;DHT22;11525;51.152;4.456;2022-11-15T09:00:57;19.20;99.90
22716;DHT22;11525;51.152;4.456;2022-11-15T09:03:23;18.40;99.90
22716;DHT22;11525;51.152;4.456;2022-11-15T09:05:54;17.40;99.90
22716;DHT22;11525;51.152;4.456;2022-11-15T09:08:20;17.30;99.90
22716;DHT22;11525;51.152;4.456;2022-11-15T09:10:46;17.00;99.90
22716;DHT22;11525;51.152;4.456;2022-11-15T09:13:11;17.10;99.90
22716;DHT22;11525;51.152;4.456;2022-11-15T09:15:37;17.20;99.90
22716;DHT22;11525;51.152;4.456;2022-11-15T09:18:03;17.40;99.90
22716;DHT22;11525;51.152;4.456;2022-11-15T09:20:29;17.90;99.90
22716;DHT22;11525;51.152;4.456;2022-11-15T09:22:58;18.20;99.90
22716;DHT22;11525;51.152;4.456;2022-11-15T09:25:24;18.30;99.90
22716;DHT22;11525;51.152;4.456;2022-11-15T09:27:50;19.20;99.90
22716;DHT22;11525;51.152;4.456;2022-11-15T09:30:16;18.80;99.90
22716;DHT22;11525;51.152;4.456;2022-11-15T09:32:41;19.50;99.90
22716;DHT22;11525;51.152;4.456;2022-11-15T09:35:07;20.00;99.90
22716;DHT22;11525;51.152;4.456;2022-11-15T09:37:33;20.60;99.90
22716;DHT22;11525;51.152;4.456;2022-11-15T09:39:59;21.70;99.90
22716;DHT22;11525;51.152;4.456;2022-11-15T09:48:25;20.80;98.80
22716;DHT22;11525;51.152;4.456;2022-11-15T09:50:54;20.60;99.90
22716;DHT22;11525;51.152;4.456;2022-11-15T09:56:03;19.60;99.90
22716;DHT22;11525;51.152;4.456;2022-11-15T09:58:42;20.20;99.90
22716;DHT22;11525;51.152;4.456;2022-11-15T10:04:21;20.70;99.90
22716;DHT22;11525;51.152;4.456;2022-11-15T10:06:54;20.50;99.80
22716;DHT22;11525;51.152;4.456;2022-11-15T10:12:08;20.40;99.70
22716;DHT22;11525;51.152;4.456;2022-11-15T10:14:35;20.10;99.60
22716;DHT22;11525;51.152;4.456;2022-11-15T10:17:16;20.20;99.80
22716;DHT22;11525;51.152;4.456;2022-11-15T10:20:05;20.20;99.80
22716;DHT22;11525;51.152;4.456;2022-11-15T10:25:29;20.50;98.30
22716;DHT22;11525;51.152;4.456;2022-11-15T10:30:42;16.90;99.90
22716;DHT22;11525;51.152;4.456;2022-11-15T10:36:21;15.80;99.90
22716;DHT22;11525;51.152;4.456;2022-11-15T10:41:20;15.70;99.90
22716;DHT22;11525;51.152;4.456;2022-11-15T10:47:05;15.20;99.90
22716;DHT22;11525;51.152;4.456;2022-11-15T10:49:32;15.10;99.90
22716;DHT22;11525;51.152;4.456;2022-11-15T10:54:47;14.90;99.90
22716;DHT22;11525;51.152;4.456;2022-11-15T10:57:16;14.80;99.90
22716;DHT22;11525;51.152;4.456;2022-11-15T10:59:47;14.50;99.90
22716;DHT22;11525;51.152;4.456;2022-11-15T11:02:37;14.50;99.90
22716;DHT22;11525;51.152;4.456;2022-11-15T11:05:25;14.60;99.90
22716;DHT22;11525;51.152;4.456;2022-11-15T11:08:00;14.60;99.90
22716;DHT22;11525;51.152;4.456;2022-11-15T11:10:27;14.30;99.90
22716;DHT22;11525;51.152;4.456;2022-11-15T11:12:53;14.40;99.90
22716;DHT22;11525;51.152;4.456;2022-11-15T11:15:19;14.40;99.90
22716;DHT22;11525;51.152;4.456;2022-11-15T11:20:44;14.40;99.90
22716;DHT22;11525;51.152;4.456;2022-11-15T11:23:17;14.50;99.90
22716;DHT22;11525;51.152;4.456;2022-11-15T11:32:01;14.70;99.90
22716;DHT22;11525;51.152;4.456;2022-11-15T11:40:34;14.60;99.90
22716;DHT22;11525;51.152;4.456;2022-11-15T11:46:05;14.80;99.90
22716;DHT22;11525;51.152;4.456;2022-11-15T11:48:57;14.60;99.90
22716;DHT22;11525;51.152;4.456;2022-11-15T11:51:38;14.40;99.90
22716;DHT22;11525;51.152;4.456;2022-11-15T11:54:22;14.10;99.90
22716;DHT22;11525;51.152;4.456;2022-11-15T11:56:50;14.10;99.90
22716;DHT22;11525;51.152;4.456;2022-11-15T11:59:25;14.10;99.90
22716;DHT22;11525;51.152;4.456;2022-11-15T12:01:54;14.30;99.90
22716;DHT22;11525;51.152;4.456;2022-11-15T12:04:35;14.40;99.90
22716;DHT22;11525;51.152;4.456;2022-11-15T12:12:58;14.50;99.90
22716;DHT22;11525;51.152;4.456;2022-11-15T12:15:33;14.60;99.90
22716;DHT22;11525;51.152;4.456;2022-11-15T12:18:01;14.40;99.90
22716;DHT22;11525;51.152;4.456;2022-11-15T12:20:32;14.50;99.90
22716;DHT22;11525;51.152;4.456;2022-11-15T12:23:19;14.50;99.90
22716;DHT22;11525;51.152;4.456;2022-11-15T12:26:00;14.20;99.90
22716;DHT22;11525;51.152;4.456;2022-11-15T12:33:47;14.20;99.90
22716;DHT22;11525;51.152;4.456;2022-11-15T12:41:22;14.20;99.90
22716;DHT22;11525;51.152;4.456;2022-11-15T12:43:48;14.10;99.90
22716;DHT22;11525;51.152;4.456;2022-11-15T12:59:57;14.00;99.90
22716;DHT22;11525;51.152;4.456;2022-11-15T13:02:44;13.90;99.90
22716;DHT22;11525;51.152;4.456;2022-11-15T13:13:03;14.20;99.90
22716;DHT22;11525;51.152;4.456;2022-11-15T13:15:37;14.30;99.90
22716;DHT22;11525;51.152;4.456;2022-11-15T13:18:32;14.30;99.90
22716;DHT22;11525;51.152;4.456;2022-11-15T13:20:59;14.30;99.90
22716;DHT22;11525;51.152;4.456;2022-11-15T13:23:25;14.20;99.90
22716;DHT22;11525;51.152;4.456;2022-11-15T13:28:46;14.30;99.90
22716;DHT22;11525;51.152;4.456;2022-11-15T13:31:35;14.60;99.90
22716;DHT22;11525;51.152;4.456;2022-11-15T13:34:20;14.60;99.90
22716;DHT22;11525;51.152;4.456;2022-11-15T13:36:48;14.60;99.90
22716;DHT22;11525;51.152;4.456;2022-11-15T13:39:29;14.40;99.90
22716;DHT22;11525;51.152;4.456;2022-11-15T13:41:54;14.50;99.90
22716;DHT22;11525;51.152;4.456;2022-11-15T13:44:26;14.40;99.90
22716;DHT22;11525;51.152;4.456;2022-11-15T13:47:09;14.40;99.90
22716;DHT22;11525;51.152;4.456;2022-11-15T13:49:38;14.40;99.90
22716;DHT22;11525;51.152;4.456;2022-11-15T13:52:10;14.40;99.90
22716;DHT22;11525;51.152;4.456;2022-11-15T13:54:53;14.30;99.90
22716;DHT22;11525;51.152;4.456;2022-11-15T13:57:24;14.30;99.90
22716;DHT22;11525;51.152;4.456;2022-11-15T13:59:55;14.40;99.90
22716;DHT22;11525;51.152;4.456;2022-11-15T14:02:27;14.30;99.90
22716;DHT22;11525;51.152;4.456;2022-11-15T14:05:19;14.20;99.90
22716;DHT22;11525;51.152;4.456;2022-11-15T14:07:55;14.10;99.90
22716;DHT22;11525;51.152;4.456;2022-11-15T14:10:32;14.20;99.90
22716;DHT22;11525;51.152;4.456;2022-11-15T14:12:59;14.30;99.90
22716;DHT22;11525;51.152;4.456;2022-11-15T14:15:35;14.20;99.90
22716;DHT22;11525;51.152;4.456;2022-11-15T14:18:02;14.10;99.90
22716;DHT22;11525;51.152;4.456;2022-11-15T14:20:35;14.10;99.90
22716;DHT22;11525;51.152;4.456;2022-11-15T14:23:05;14.10;99.90
22716;DHT22;11525;51.152;4.456;2022-11-15T14:25:35;14.10;99.90
22716;DHT22;11525;51.152;4.456;2022-11-15T14:28:28;14.30;99.90
22716;DHT22;11525;51.152;4.456;2022-11-15T14:30:57;14.20;99.90
22716;DHT22;11525;51.152;4.456;2022-11-15T14:33:34;14.30;99.90
22716;DHT22;11525;51.152;4.456;2022-11-15T14:36:19;14.20;99.90
22716;DHT22;11525;51.152;4.456;2022-11-15T14:38:45;14.10;99.90
22716;DHT22;11525;51.152;4.456;2022-11-15T14:41:23;14.10;99.90
22716;DHT22;11525;51.152;4.456;2022-11-15T14:43:50;14.10;99.90
22716;DHT22;11525;51.152;4.456;2022-11-15T14:46:17;14.30;99.90
22716;DHT22;11525;51.152;4.456;2022-11-15T14:48:42;14.10;99.90
22716;DHT22;11525;51.152;4.456;2022-11-15T14:51:13;13.90;99.90
22716;DHT22;11525;51.152;4.456;2022-11-15T14:53:42;13.70;99.90
22716;DHT22;11525;51.152;4.456;2022-11-15T14:56:09;13.50;99.90
22716;DHT22;11525;51.152;4.456;2022-11-15T14:58:35;13.40;99.90
22716;DHT22;11525;51.152;4.456;2022-11-15T15:01:03;13.30;99.90
22716;DHT22;11525;51.152;4.456;2022-11-15T15:03:34;13.40;99.90
22716;DHT22;11525;51.152;4.456;2022-11-15T15:06:00;13.30;99.90
22716;DHT22;11525;51.152;4.456;2022-11-15T15:08:26;13.10;99.90
22716;DHT22;11525;51.152;4.456;2022-11-15T15:10:52;13.20;99.90
22716;DHT22;11525;51.152;4.456;2022-11-15T15:13:23;13.10;99.90
22716;DHT22;11525;51.152;4.456;2022-11-15T15:15:50;12.90;99.90
22716;DHT22;11525;51.152;4.456;2022-11-15T15:18:16;12.70;99.90
22716;DHT22;11525;51.152;4.456;2022-11-15T15:20:44;12.60;99.90
22716;DHT22;11525;51.152;4.456;2022-11-15T15:23:20;12.90;99.90
22716;DHT22;11525;51.152;4.456;2022-11-15T15:25:47;13.10;99.90
22716;DHT22;11525;51.152;4.456;2022-11-15T15:28:14;13.20;99.90
22716;DHT22;11525;51.152;4.456;2022-11-15T15:30:40;13.00;99.90
22716;DHT22;11525;51.152;4.456;2022-11-15T15:33:06;12.90;99.90
22716;DHT22;11525;51.152;4.456;2022-11-15T15:35:33;13.00;99.90
22716;DHT22;11525;51.152;4.456;2022-11-15T15:38:00;12.90;99.90
22716;DHT22;11525;51.152;4.456;2022-11-15T15:40:28;12.90;99.90
22716;DHT22;11525;51.152;4.456;2022-11-15T15:42:54;12.70;99.90
22716;DHT22;11525;51.152;4.456;2022-11-15T15:45:20;12.70;99.90
22716;DHT22;11525;51.152;4.456;2022-11-15T15:47:46;12.60;99.90
22716;DHT22;11525;51.152;4.456;2022-11-15T15:50:33;12.60;99.90
22716;DHT22;11525;51.152;4.456;2022-11-15T15:53:00;12.90;99.90
22716;DHT22;11525;51.152;4.456;2022-11-15T15:55:27;12.90;99.90
22716;DHT22;11525;51.152;4.456;2022-11-15T15:57:53;12.70;99.90
22716;DHT22;11525;51.152;4.456;2022-11-15T16:00:20;12.70;99.90
22716;DHT22;11525;51.152;4.456;2022-11-15T16:02:46;12.70;99.90
22716;DHT22;11525;51.152;4.456;2022-11-15T16:05:12;12.80;99.90
22716;DHT22;11525;51.152;4.456;2022-11-15T16:07:39;12.70;99.90
22716;DHT22;11525;51.152;4.456;2022-11-15T16:10:23;12.70;99.90
22716;DHT22;11525;51.152;4.456;2022-11-15T16:12:54;12.80;99.90
22716;DHT22;11525;51.152;4.456;2022-11-15T16:15:22;12.70;99.90
22716;DHT22;11525;51.152;4.456;2022-11-15T16:17:59;12.60;99.90
22716;DHT22;11525;51.152;4.456;2022-11-15T16:20:38;12.50;99.90
22716;DHT22;11525;51.152;4.456;2022-11-15T16:23:10;12.50;99.90
22716;DHT22;11525;51.152;4.456;2022-11-15T16:25:44;12.60;99.90
22716;DHT22;11525;51.152;4.456;2022-11-15T16:30:49;12.40;99.90
22716;DHT22;11525;51.152;4.456;2022-11-15T16:33:15;12.20;99.90
22716;DHT22;11525;51.152;4.456;2022-11-15T16:35:43;12.30;99.90
22716;DHT22;11525;51.152;4.456;2022-11-15T16:38:14;12.40;99.90
22716;DHT22;11525;51.152;4.456;2022-11-15T16:40:40;12.40;99.90
22716;DHT22;11525;51.152;4.456;2022-11-15T16:43:06;12.30;99.90
22716;DHT22;11525;51.152;4.456;2022-11-15T16:45:33;12.20;99.90
22716;DHT22;11525;51.152;4.456;2022-11-15T16:48:00;12.20;99.90
22716;DHT22;11525;51.152;4.456;2022-11-15T16:50:28;12.30;99.90
22716;DHT22;11525;51.152;4.456;2022-11-15T16:52:58;12.20;99.90
22716;DHT22;11525;51.152;4.456;2022-11-15T16:55:27;12.20;99.90
22716;DHT22;11525;51.152;4.456;2022-11-15T16:57:54;12.20;99.90
22716;DHT22;11525;51.152;4.456;2022-11-15T17:00:22;12.20;99.90
22716;DHT22;11525;51.152;4.456;2022-11-15T17:02:49;12.10;99.90
22716;DHT22;11525;51.152;4.456;2022-11-15T17:05:18;12.10;99.90
22716;DHT22;11525;51.152;4.456;2022-11-15T17:07:46;12.20;99.90
22716;DHT22;11525;51.152;4.456;2022-11-15T17:10:15;12.10;99.90
22716;DHT22;11525;51.152;4.456;2022-11-15T17:12:41;12.00;99.90
22716;DHT22;11525;51.152;4.456;2022-11-15T17:15:09;12.10;99.90
22716;DHT22;11525;51.152;4.456;2022-11-15T17:17:35;12.30;99.90
22716;DHT22;11525;51.152;4.456;2022-11-15T17:20:01;12.30;99.90
22716;DHT22;11525;51.152;4.456;2022-11-15T17:22:29;12.30;99.90
22716;DHT22;11525;51.152;4.456;2022-11-15T17:24:56;12.20;99.90
22716;DHT22;11525;51.152;4.456;2022-11-15T17:27:22;12.10;99.90
22716;DHT22;11525;51.152;4.456;2022-11-15T17:29:48;12.30;99.90
22716;DHT22;11525;51.152;4.456;2022-11-15T17:32:14;12.40;99.90
22716;DHT22;11525;51.152;4.456;2022-11-15T17:34:40;12.40;99.90
22716;DHT22;11525;51.152;4.456;2022-11-15T17:37:05;12.30;99.90
22716;DHT22;11525;51.152;4.456;2022-11-15T17:39:31;12.30;99.90
22716;DHT22;11525;51.152;4.456;2022-11-15T17:41:57;12.30;99.90
22716;DHT22;11525;51.152;4.456;2022-11-15T17:44:23;12.30;99.90
22716;DHT22;11525;51.152;4.456;2022-11-15T17:46:49;12.20;99.90
22716;DHT22;11525;51.152;4.456;2022-11-15T17:49:15;12.40;99.90
22716;DHT22;11525;51.152;4.456;2022-11-15T17:51:41;12.40;99.90
22716;DHT22;11525;51.152;4.456;2022-11-15T17:54:09;12.50;99.90